sensor_id;sensor_type;location;lat;lon;timestamp;P1;durP1;ratioP1;P2;durP2;ratioP2
22113;SDS011;11223;49.968;9.062;2023-02-08T02:53:58;14.00;;;10.52;;
22113;SDS011;11223;49.968;9.062;2023-02-08T02:56:33;15.05;;;10.02;;
22113;SDS011;11223;49.968;9.062;2023-02-08T02:59:03;14.55;;;9.18;;
22113;SDS011;11223;49.968;9.062;2023-02-08T03:01:31;14.25;;;10.50;;
22113;SDS011;11223;49.968;9.062;2023-02-08T03:03:57;23.85;;;12.00;;
22113;SDS011;11223;49.968;9.062;2023-02-08T03:06:28;12.33;;;9.80;;
22113;SDS011;11223;49.968;9.062;2023-02-08T03:11:45;15.20;;;10.73;;
22113;SDS011;11223;49.968;9.062;2023-02-08T03:19:38;14.20;;;10.32;;
22113;SDS011;11223;49.968;9.062;2023-02-08T03:22:25;15.25;;;9.25;;
22113;SDS011;11223;49.968;9.062;2023-02-08T03:25:05;10.20;;;8.18;;
22113;SDS011;11223;49.968;9.062;2023-02-08T03:27:49;10.68;;;8.27;;
22113;SDS011;11223;49.968;9.062;2023-02-08T03:32:59;16.85;;;9.18;;
22113;SDS011;11223;49.968;9.062;2023-02-08T03:35:35;14.23;;;8.88;;
22113;SDS011;11223;49.968;9.062;2023-02-08T03:43:13;13.38;;;9.05;;
22113;SDS011;11223;49.968;9.062;2023-02-08T03:45:45;14.82;;;10.60;;
22113;SDS011;11223;49.968;9.062;2023-02-08T03:48:16;13.25;;;10.27;;
22113;SDS011;11223;49.968;9.062;2023-02-08T03:50:45;11.95;;;8.55;;
22113;SDS011;11223;49.968;9.062;2023-02-08T03:53:14;13.20;;;8.88;;
22113;SDS011;11223;49.968;9.062;2023-02-08T03:55:44;10.45;;;8.88;;
22113;SDS011;11223;49.968;9.062;2023-02-08T04:00:55;11.20;;;9.15;;
22113;SDS011;11223;49.968;9.062;2023-02-08T04:03:27;15.23;;;9.90;;
22113;SDS011;11223;49.968;9.062;2023-02-08T04:05:54;13.82;;;9.50;;
22113;SDS011;11223;49.968;9.062;2023-02-08T04:08:20;13.40;;;9.43;;
22113;SDS011;11223;49.968;9.062;2023-02-08T04:10:46;11.60;;;9.13;;
22113;SDS011;11223;49.968;9.062;2023-02-08T04:13:12;13.55;;;8.82;;
22113;SDS011;11223;49.968;9.062;2023-02-08T04:15:37;13.23;;;9.60;;
22113;SDS011;11223;49.968;9.062;2023-02-08T04:18:03;15.27;;;9.30;;
22113;SDS011;11223;49.968;9.062;2023-02-08T04:20:29;14.70;;;7.78;;
22113;SDS011;11223;49.968;9.062;2023-02-08T04:22:55;12.50;;;9.30;;
22113;SDS011;11223;49.968;9.062;2023-02-08T04:25:21;15.80;;;8.80;;
22113;SDS011;11223;49.968;9.062;2023-02-08T04:27:46;12.93;;;8.20;;
22113;SDS011;11223;49.968;9.062;2023-02-08T04:30:12;10.20;;;7.37;;
22113;SDS011;11223;49.968;9.062;2023-02-08T04:32:38;12.10;;;8.17;;
22113;SDS011;11223;49.968;9.062;2023-02-08T04:35:03;12.60;;;8.97;;
22113;SDS011;11223;49.968;9.062;2023-02-08T04:37:29;10.10;;;7.70;;
22113;SDS011;11223;49.968;9.062;2023-02-08T04:39:55;14.27;;;8.77;;
22113;SDS011;11223;49.968;9.062;2023-02-08T04:42:21;13.73;;;7.83;;
22113;SDS011;11223;49.968;9.062;2023-02-08T04:44:46;13.67;;;8.57;;
22113;SDS011;11223;49.968;9.062;2023-02-08T04:47:12;8.73;;;7.00;;
22113;SDS011;11223;49.968;9.062;2023-02-08T04:49:37;11.37;;;8.00;;
22113;SDS011;11223;49.968;9.062;2023-02-08T04:52:03;13.60;;;9.77;;
22113;SDS011;11223;49.968;9.062;2023-02-08T04:54:29;8.70;;;6.80;;
22113;SDS011;11223;49.968;9.062;2023-02-08T04:56:55;11.33;;;7.70;;
22113;SDS011;11223;49.968;9.062;2023-02-08T04:59:20;14.73;;;8.30;;
22113;SDS011;11223;49.968;9.062;2023-02-08T05:01:46;16.80;;;8.60;;
22113;SDS011;11223;49.968;9.062;2023-02-08T05:04:11;10.43;;;9.23;;
22113;SDS011;11223;49.968;9.062;2023-02-08T05:06:37;12.60;;;7.88;;
22113;SDS011;11223;49.968;9.062;2023-02-08T05:09:05;17.83;;;6.93;;
22113;SDS011;11223;49.968;9.062;2023-02-08T05:11:32;18.23;;;8.00;;
22113;SDS011;11223;49.968;9.062;2023-02-08T05:13:58;17.20;;;9.07;;
22113;SDS011;11223;49.968;9.062;2023-02-08T05:16:24;10.80;;;6.97;;
22113;SDS011;11223;49.968;9.062;2023-02-08T05:18:49;12.30;;;8.20;;
22113;SDS011;11223;49.968;9.062;2023-02-08T05:21:15;11.23;;;7.57;;
22113;SDS011;11223;49.968;9.062;2023-02-08T05:23:40;11.17;;;7.70;;
22113;SDS011;11223;49.968;9.062;2023-02-08T05:26:07;12.93;;;7.83;;
22113;SDS011;11223;49.968;9.062;2023-02-08T05:28:34;12.38;;;7.30;;
22113;SDS011;11223;49.968;9.062;2023-02-08T05:31:07;16.52;;;7.93;;
22113;SDS011;11223;49.968;9.062;2023-02-08T05:33:51;15.95;;;10.35;;
22113;SDS011;11223;49.968;9.062;2023-02-08T05:36:17;14.30;;;8.32;;
22113;SDS011;11223;49.968;9.062;2023-02-08T05:38:44;10.43;;;7.15;;
22113;SDS011;11223;49.968;9.062;2023-02-08T05:41:10;10.20;;;8.83;;
22113;SDS011;11223;49.968;9.062;2023-02-08T05:43:35;12.27;;;7.53;;
22113;SDS011;11223;49.968;9.062;2023-02-08T05:46:01;14.17;;;7.77;;
22113;SDS011;11223;49.968;9.062;2023-02-08T05:48:27;9.77;;;8.83;;
22113;SDS011;11223;49.968;9.062;2023-02-08T05:50:55;12.02;;;7.53;;
22113;SDS011;11223;49.968;9.062;2023-02-08T05:53:20;10.30;;;7.23;;
22113;SDS011;11223;49.968;9.062;2023-02-08T05:55:46;12.07;;;8.57;;
22113;SDS011;11223;49.968;9.062;2023-02-08T05:58:15;10.32;;;8.55;;
22113;SDS011;11223;49.968;9.062;2023-02-08T06:00:41;12.63;;;7.70;;
22113;SDS011;11223;49.968;9.062;2023-02-08T06:03:08;12.45;;;8.00;;
22113;SDS011;11223;49.968;9.062;2023-02-08T06:05:35;9.10;;;6.75;;
22113;SDS011;11223;49.968;9.062;2023-02-08T06:08:02;14.57;;;8.35;;
22113;SDS011;11223;49.968;9.062;2023-02-08T06:10:27;13.13;;;8.07;;
22113;SDS011;11223;49.968;9.062;2023-02-08T06:12:53;11.40;;;7.70;;
22113;SDS011;11223;49.968;9.062;2023-02-08T06:15:19;11.87;;;8.23;;
22113;SDS011;11223;49.968;9.062;2023-02-08T06:17:44;9.63;;;7.70;;
22113;SDS011;11223;49.968;9.062;2023-02-08T06:20:10;14.23;;;8.80;;
22113;SDS011;11223;49.968;9.062;2023-02-08T06:22:36;9.80;;;7.80;;
22113;SDS011;11223;49.968;9.062;2023-02-08T06:25:01;8.90;;;6.83;;
22113;SDS011;11223;49.968;9.062;2023-02-08T06:27:27;15.77;;;7.47;;
22113;SDS011;11223;49.968;9.062;2023-02-08T06:29:53;12.10;;;7.90;;
22113;SDS011;11223;49.968;9.062;2023-02-08T06:32:19;12.87;;;8.67;;
22113;SDS011;11223;49.968;9.062;2023-02-08T06:34:44;10.77;;;8.00;;
22113;SDS011;11223;49.968;9.062;2023-02-08T06:37:12;13.00;;;7.30;;
22113;SDS011;11223;49.968;9.062;2023-02-08T06:39:37;12.90;;;9.27;;
22113;SDS011;11223;49.968;9.062;2023-02-08T06:42:03;12.17;;;7.67;;
22113;SDS011;11223;49.968;9.062;2023-02-08T06:44:29;11.90;;;7.73;;
22113;SDS011;11223;49.968;9.062;2023-02-08T06:46:54;14.00;;;8.70;;
22113;SDS011;11223;49.968;9.062;2023-02-08T06:49:20;10.30;;;7.10;;
22113;SDS011;11223;49.968;9.062;2023-02-08T06:51:45;8.90;;;6.40;;
22113;SDS011;11223;49.968;9.062;2023-02-08T06:54:11;8.40;;;6.60;;
22113;SDS011;11223;49.968;9.062;2023-02-08T06:56:36;9.17;;;6.83;;
22113;SDS011;11223;49.968;9.062;2023-02-08T06:59:02;8.27;;;6.20;;
22113;SDS011;11223;49.968;9.062;2023-02-08T07:01:27;10.30;;;7.00;;
22113;SDS011;11223;49.968;9.062;2023-02-08T07:03:53;12.50;;;7.67;;
22113;SDS011;11223;49.968;9.062;2023-02-08T07:06:19;11.00;;;8.70;;
22113;SDS011;11223;49.968;9.062;2023-02-08T07:08:45;13.03;;;7.17;;
22113;SDS011;11223;49.968;9.062;2023-02-08T07:11:12;13.75;;;7.82;;
22113;SDS011;11223;49.968;9.062;2023-02-08T07:13:39;9.80;;;7.82;;
22113;SDS011;11223;49.968;9.062;2023-02-08T07:16:05;9.73;;;7.23;;
22113;SDS011;11223;49.968;9.062;2023-02-08T07:18:32;13.88;;;8.75;;
22113;SDS011;11223;49.968;9.062;2023-02-08T07:20:59;9.25;;;7.45;;
22113;SDS011;11223;49.968;9.062;2023-02-08T07:23:24;10.53;;;7.03;;
22113;SDS011;11223;49.968;9.062;2023-02-08T07:25:57;13.40;;;8.85;;
22113;SDS011;11223;49.968;9.062;2023-02-08T07:28:25;10.95;;;8.82;;
22113;SDS011;11223;49.968;9.062;2023-02-08T07:30:51;13.00;;;7.00;;
22113;SDS011;11223;49.968;9.062;2023-02-08T07:33:17;8.25;;;7.25;;
22113;SDS011;11223;49.968;9.062;2023-02-08T07:35:43;13.63;;;9.05;;
22113;SDS011;11223;49.968;9.062;2023-02-08T07:38:08;17.55;;;9.85;;
22113;SDS011;11223;49.968;9.062;2023-02-08T07:40:34;14.80;;;10.43;;
22113;SDS011;11223;49.968;9.062;2023-02-08T07:43:00;14.83;;;10.00;;
22113;SDS011;11223;49.968;9.062;2023-02-08T07:45:25;10.53;;;8.00;;
22113;SDS011;11223;49.968;9.062;2023-02-08T07:47:51;17.20;;;9.73;;
22113;SDS011;11223;49.968;9.062;2023-02-08T07:50:17;11.70;;;9.30;;
22113;SDS011;11223;49.968;9.062;2023-02-08T07:52:42;15.37;;;10.73;;
22113;SDS011;11223;49.968;9.062;2023-02-08T07:55:10;14.90;;;11.43;;
22113;SDS011;11223;49.968;9.062;2023-02-08T07:57:41;16.00;;;12.88;;
22113;SDS011;11223;49.968;9.062;2023-02-08T08:00:10;13.85;;;9.63;;
22113;SDS011;11223;49.968;9.062;2023-02-08T08:02:36;21.27;;;11.60;;
22113;SDS011;11223;49.968;9.062;2023-02-08T08:05:02;17.33;;;10.83;;
22113;SDS011;11223;49.968;9.062;2023-02-08T08:07:28;19.37;;;9.93;;
22113;SDS011;11223;49.968;9.062;2023-02-08T08:09:53;18.63;;;12.87;;
22113;SDS011;11223;49.968;9.062;2023-02-08T08:12:19;16.60;;;10.93;;
22113;SDS011;11223;49.968;9.062;2023-02-08T08:14:45;16.13;;;11.05;;
22113;SDS011;11223;49.968;9.062;2023-02-08T08:17:11;20.17;;;12.60;;
22113;SDS011;11223;49.968;9.062;2023-02-08T08:19:36;18.40;;;13.07;;
22113;SDS011;11223;49.968;9.062;2023-02-08T08:22:02;16.30;;;12.00;;
22113;SDS011;11223;49.968;9.062;2023-02-08T08:24:28;21.37;;;14.73;;
22113;SDS011;11223;49.968;9.062;2023-02-08T08:26:55;19.67;;;13.02;;
22113;SDS011;11223;49.968;9.062;2023-02-08T08:29:21;20.83;;;12.05;;
22113;SDS011;11223;49.968;9.062;2023-02-08T08:31:47;18.60;;;13.57;;
22113;SDS011;11223;49.968;9.062;2023-02-08T08:34:13;17.67;;;12.03;;
22113;SDS011;11223;49.968;9.062;2023-02-08T08:36:39;19.97;;;14.57;;
22113;SDS011;11223;49.968;9.062;2023-02-08T08:39:04;21.90;;;13.20;;
22113;SDS011;11223;49.968;9.062;2023-02-08T08:41:30;18.10;;;13.30;;
22113;SDS011;11223;49.968;9.062;2023-02-08T08:43:55;15.63;;;10.97;;
22113;SDS011;11223;49.968;9.062;2023-02-08T08:46:21;17.70;;;11.90;;
22113;SDS011;11223;49.968;9.062;2023-02-08T08:48:47;11.90;;;9.40;;
22113;SDS011;11223;49.968;9.062;2023-02-08T08:51:12;10.37;;;8.63;;
22113;SDS011;11223;49.968;9.062;2023-02-08T08:53:38;13.33;;;7.60;;
22113;SDS011;11223;49.968;9.062;2023-02-08T08:56:04;10.50;;;9.40;;
22113;SDS011;11223;49.968;9.062;2023-02-08T08:58:30;9.77;;;7.35;;
22113;SDS011;11223;49.968;9.062;2023-02-08T09:00:56;10.73;;;9.63;;
22113;SDS011;11223;49.968;9.062;2023-02-08T09:03:25;15.82;;;10.30;;
22113;SDS011;11223;49.968;9.062;2023-02-08T09:05:52;11.32;;;10.13;;
22113;SDS011;11223;49.968;9.062;2023-02-08T09:08:17;10.30;;;9.20;;
22113;SDS011;11223;49.968;9.062;2023-02-08T09:10:43;13.53;;;9.47;;
22113;SDS011;11223;49.968;9.062;2023-02-08T09:13:09;13.10;;;11.17;;
22113;SDS011;11223;49.968;9.062;2023-02-08T09:15:38;14.17;;;12.07;;
22113;SDS011;11223;49.968;9.062;2023-02-08T09:18:04;13.77;;;10.82;;
22113;SDS011;11223;49.968;9.062;2023-02-08T09:20:30;13.52;;;11.07;;
22113;SDS011;11223;49.968;9.062;2023-02-08T09:22:56;16.13;;;12.87;;
22113;SDS011;11223;49.968;9.062;2023-02-08T09:25:22;14.23;;;12.87;;
22113;SDS011;11223;49.968;9.062;2023-02-08T09:27:47;13.37;;;9.87;;
22113;SDS011;11223;49.968;9.062;2023-02-08T09:30:13;13.90;;;10.83;;
22113;SDS011;11223;49.968;9.062;2023-02-08T09:32:39;10.60;;;8.30;;
22113;SDS011;11223;49.968;9.062;2023-02-08T09:35:05;13.17;;;11.87;;
22113;SDS011;11223;49.968;9.062;2023-02-08T09:37:31;15.07;;;11.73;;
22113;SDS011;11223;49.968;9.062;2023-02-08T09:39:57;13.60;;;10.07;;
22113;SDS011;11223;49.968;9.062;2023-02-08T09:45:09;10.82;;;9.65;;
22113;SDS011;11223;49.968;9.062;2023-02-08T09:50:39;12.73;;;9.98;;
22113;SDS011;11223;49.968;9.062;2023-02-08T09:53:52;10.80;;;9.70;;
22113;SDS011;11223;49.968;9.062;2023-02-08T09:56:05;10.35;;;9.35;;
22113;SDS011;11223;49.968;9.062;2023-02-08T09:58:36;11.80;;;10.60;;
22113;SDS011;11223;49.968;9.062;2023-02-08T10:01:06;13.40;;;10.63;;
22113;SDS011;11223;49.968;9.062;2023-02-08T10:03:42;11.23;;;9.77;;
22113;SDS011;11223;49.968;9.062;2023-02-08T10:06:10;11.40;;;10.18;;
22113;SDS011;11223;49.968;9.062;2023-02-08T10:08:38;12.93;;;11.35;;
22113;SDS011;11223;49.968;9.062;2023-02-08T10:16:48;10.50;;;9.40;;
22113;SDS011;11223;49.968;9.062;2023-02-08T10:22:29;10.55;;;9.55;;
22113;SDS011;11223;49.968;9.062;2023-02-08T10:27:49;11.60;;;10.40;;
22113;SDS011;11223;49.968;9.062;2023-02-08T10:33:02;10.85;;;9.77;;
22113;SDS011;11223;49.968;9.062;2023-02-08T10:35:49;11.10;;;9.65;;
22113;SDS011;11223;49.968;9.062;2023-02-08T10:38:27;11.18;;;10.05;;
22113;SDS011;11223;49.968;9.062;2023-02-08T10:40:57;12.10;;;10.52;;
22113;SDS011;11223;49.968;9.062;2023-02-08T10:51:10;11.30;;;10.20;;
22113;SDS011;11223;49.968;9.062;2023-02-08T10:53:39;12.20;;;10.65;;
22113;SDS011;11223;49.968;9.062;2023-02-08T10:56:05;12.43;;;11.23;;
22113;SDS011;11223;49.968;9.062;2023-02-08T10:58:34;12.65;;;10.38;;
22113;SDS011;11223;49.968;9.062;2023-02-08T11:01:00;12.23;;;10.98;;
22113;SDS011;11223;49.968;9.062;2023-02-08T11:03:27;12.30;;;11.00;;
22113;SDS011;11223;49.968;9.062;2023-02-08T11:05:53;11.55;;;10.45;;
22113;SDS011;11223;49.968;9.062;2023-02-08T11:08:20;14.15;;;12.65;;
22113;SDS011;11223;49.968;9.062;2023-02-08T11:11:02;10.85;;;9.73;;
22113;SDS011;11223;49.968;9.062;2023-02-08T11:16:06;10.55;;;9.57;;
22113;SDS011;11223;49.968;9.062;2023-02-08T11:18:40;11.80;;;10.68;;
22113;SDS011;11223;49.968;9.062;2023-02-08T11:21:31;12.73;;;10.43;;
22113;SDS011;11223;49.968;9.062;2023-02-08T11:24:17;13.20;;;11.10;;
22113;SDS011;11223;49.968;9.062;2023-02-08T11:26:45;13.95;;;10.98;;
22113;SDS011;11223;49.968;9.062;2023-02-08T11:29:17;13.17;;;11.93;;
22113;SDS011;11223;49.968;9.062;2023-02-08T11:36:58;12.75;;;9.30;;
22113;SDS011;11223;49.968;9.062;2023-02-08T11:39:29;11.70;;;8.90;;
22113;SDS011;11223;49.968;9.062;2023-02-08T11:42:03;10.98;;;7.63;;
22113;SDS011;11223;49.968;9.062;2023-02-08T11:44:31;8.13;;;6.85;;
22113;SDS011;11223;49.968;9.062;2023-02-08T11:47:07;9.48;;;7.65;;
22113;SDS011;11223;49.968;9.062;2023-02-08T11:49:36;11.20;;;8.27;;
22113;SDS011;11223;49.968;9.062;2023-02-08T11:52:17;13.30;;;7.65;;
22113;SDS011;11223;49.968;9.062;2023-02-08T11:54:45;8.32;;;6.57;;
22113;SDS011;11223;49.968;9.062;2023-02-08T11:57:29;7.20;;;6.50;;
22113;SDS011;11223;49.968;9.062;2023-02-08T12:00:14;10.05;;;7.10;;
22113;SDS011;11223;49.968;9.062;2023-02-08T12:02:44;6.30;;;5.07;;
22113;SDS011;11223;49.968;9.062;2023-02-08T12:05:14;8.67;;;6.80;;
22113;SDS011;11223;49.968;9.062;2023-02-08T12:21:59;11.73;;;5.47;;
22113;SDS011;11223;49.968;9.062;2023-02-08T12:32:37;6.53;;;5.70;;
22113;SDS011;11223;49.968;9.062;2023-02-08T12:40:52;6.93;;;5.28;;
22113;SDS011;11223;49.968;9.062;2023-02-08T12:46:32;5.35;;;4.45;;
22113;SDS011;11223;49.968;9.062;2023-02-08T12:49:27;9.80;;;7.25;;
22113;SDS011;11223;49.968;9.062;2023-02-08T12:52:28;8.27;;;5.40;;
22113;SDS011;11223;49.968;9.062;2023-02-08T12:55:17;7.40;;;5.40;;
22113;SDS011;11223;49.968;9.062;2023-02-08T12:57:51;7.05;;;5.00;;
22113;SDS011;11223;49.968;9.062;2023-02-08T13:05:21;7.05;;;5.85;;
22113;SDS011;11223;49.968;9.062;2023-02-08T13:07:53;8.23;;;4.85;;
22113;SDS011;11223;49.968;9.062;2023-02-08T13:10:38;8.52;;;5.18;;
22113;SDS011;11223;49.968;9.062;2023-02-08T13:16:09;8.52;;;5.40;;
22113;SDS011;11223;49.968;9.062;2023-02-08T13:18:42;7.88;;;4.25;;
22113;SDS011;11223;49.968;9.062;2023-02-08T13:21:33;8.43;;;5.30;;
22113;SDS011;11223;49.968;9.062;2023-02-08T13:24:05;8.27;;;5.18;;
22113;SDS011;11223;49.968;9.062;2023-02-08T13:26:50;9.57;;;7.57;;
22113;SDS011;11223;49.968;9.062;2023-02-08T13:29:16;6.43;;;5.70;;
22113;SDS011;11223;49.968;9.062;2023-02-08T13:31:45;5.85;;;4.65;;
22113;SDS011;11223;49.968;9.062;2023-02-08T13:37:03;11.88;;;6.07;;
22113;SDS011;11223;49.968;9.062;2023-02-08T13:39:42;13.60;;;6.18;;
22113;SDS011;11223;49.968;9.062;2023-02-08T13:44:58;7.85;;;5.93;;
22113;SDS011;11223;49.968;9.062;2023-02-08T13:47:27;7.90;;;6.80;;
22113;SDS011;11223;49.968;9.062;2023-02-08T13:50:00;6.78;;;5.18;;
22113;SDS011;11223;49.968;9.062;2023-02-08T13:58:01;7.60;;;5.07;;
22113;SDS011;11223;49.968;9.062;2023-02-08T14:03:26;7.38;;;5.57;;
22113;SDS011;11223;49.968;9.062;2023-02-08T14:05:54;7.60;;;5.40;;
22113;SDS011;11223;49.968;9.062;2023-02-08T14:11:10;6.30;;;5.28;;
22113;SDS011;11223;49.968;9.062;2023-02-08T14:13:49;7.63;;;5.45;;
22113;SDS011;11223;49.968;9.062;2023-02-08T14:16:25;7.70;;;5.82;;
22113;SDS011;11223;49.968;9.062;2023-02-08T14:18:54;7.15;;;5.35;;
22113;SDS011;11223;49.968;9.062;2023-02-08T14:21:33;7.70;;;4.97;;
22113;SDS011;11223;49.968;9.062;2023-02-08T14:24:04;8.77;;;5.07;;
22113;SDS011;11223;49.968;9.062;2023-02-08T14:26:32;5.55;;;4.90;;
22113;SDS011;11223;49.968;9.062;2023-02-08T14:29:01;9.40;;;6.30;;
22113;SDS011;11223;49.968;9.062;2023-02-08T14:31:35;9.63;;;5.40;;
22113;SDS011;11223;49.968;9.062;2023-02-08T14:34:03;9.10;;;5.93;;
22113;SDS011;11223;49.968;9.062;2023-02-08T14:36:33;8.82;;;6.57;;
22113;SDS011;11223;49.968;9.062;2023-02-08T14:39:04;6.30;;;5.40;;
22113;SDS011;11223;49.968;9.062;2023-02-08T14:49:48;8.88;;;5.82;;
22113;SDS011;11223;49.968;9.062;2023-02-08T14:52:20;9.38;;;5.07;;
22113;SDS011;11223;49.968;9.062;2023-02-08T14:54:49;6.13;;;4.45;;
22113;SDS011;11223;49.968;9.062;2023-02-08T14:57:24;5.75;;;4.82;;
22113;SDS011;11223;49.968;9.062;2023-02-08T14:59:57;7.03;;;5.10;;
22113;SDS011;11223;49.968;9.062;2023-02-08T15:02:24;7.63;;;5.50;;
22113;SDS011;11223;49.968;9.062;2023-02-08T15:04:59;5.30;;;4.40;;
22113;SDS011;11223;49.968;9.062;2023-02-08T15:07:30;8.85;;;5.53;;
22113;SDS011;11223;49.968;9.062;2023-02-08T15:10:08;6.38;;;4.72;;
22113;SDS011;11223;49.968;9.062;2023-02-08T15:12:37;12.40;;;6.10;;
22113;SDS011;11223;49.968;9.062;2023-02-08T15:15:04;12.32;;;5.05;;
22113;SDS011;11223;49.968;9.062;2023-02-08T15:17:39;6.95;;;5.13;;
22113;SDS011;11223;49.968;9.062;2023-02-08T15:20:18;5.97;;;4.72;;
22113;SDS011;11223;49.968;9.062;2023-02-08T15:22:46;6.18;;;5.57;;
22113;SDS011;11223;49.968;9.062;2023-02-08T15:25:19;5.93;;;4.80;;
22113;SDS011;11223;49.968;9.062;2023-02-08T15:27:48;7.53;;;4.57;;
22113;SDS011;11223;49.968;9.062;2023-02-08T15:30:22;9.32;;;5.00;;
22113;SDS011;11223;49.968;9.062;2023-02-08T15:33:02;6.57;;;4.20;;
22113;SDS011;11223;49.968;9.062;2023-02-08T15:35:33;6.20;;;5.00;;
22113;SDS011;11223;49.968;9.062;2023-02-08T15:38:00;7.32;;;4.68;;
22113;SDS011;11223;49.968;9.062;2023-02-08T15:40:30;13.07;;;6.78;;
22113;SDS011;11223;49.968;9.062;2023-02-08T15:43:02;10.13;;;5.95;;
22113;SDS011;11223;49.968;9.062;2023-02-08T15:45:37;7.22;;;5.45;;
22113;SDS011;11223;49.968;9.062;2023-02-08T15:48:04;7.75;;;7.00;;
22113;SDS011;11223;49.968;9.062;2023-02-08T15:50:31;9.00;;;6.60;;
22113;SDS011;11223;49.968;9.062;2023-02-08T15:53:01;11.15;;;7.43;;
22113;SDS011;11223;49.968;9.062;2023-02-08T15:55:31;9.70;;;6.20;;
22113;SDS011;11223;49.968;9.062;2023-02-08T15:58:07;12.80;;;6.40;;
22113;SDS011;11223;49.968;9.062;2023-02-08T16:00:41;9.95;;;7.18;;
22113;SDS011;11223;49.968;9.062;2023-02-08T16:03:19;10.02;;;7.13;;
22113;SDS011;11223;49.968;9.062;2023-02-08T16:05:51;11.00;;;7.55;;
22113;SDS011;11223;49.968;9.062;2023-02-08T16:08:25;7.45;;;5.53;;
22113;SDS011;11223;49.968;9.062;2023-02-08T16:10:57;8.32;;;6.88;;
22113;SDS011;11223;49.968;9.062;2023-02-08T16:13:29;18.42;;;12.07;;
22113;SDS011;11223;49.968;9.062;2023-02-08T16:16:45;24.73;;;12.70;;
22113;SDS011;11223;49.968;9.062;2023-02-08T16:19:02;25.73;;;14.55;;
22113;SDS011;11223;49.968;9.062;2023-02-08T16:21:47;16.20;;;11.13;;
22113;SDS011;11223;49.968;9.062;2023-02-08T16:24:23;18.67;;;10.47;;
22113;SDS011;11223;49.968;9.062;2023-02-08T16:26:55;8.30;;;6.07;;
22113;SDS011;11223;49.968;9.062;2023-02-08T16:29:31;6.40;;;4.10;;
22113;SDS011;11223;49.968;9.062;2023-02-08T16:34:50;5.40;;;3.90;;
22113;SDS011;11223;49.968;9.062;2023-02-08T16:37:30;7.33;;;4.60;;
22113;SDS011;11223;49.968;9.062;2023-02-08T16:40:01;9.85;;;7.15;;
22113;SDS011;11223;49.968;9.062;2023-02-08T16:42:30;11.27;;;5.65;;
22113;SDS011;11223;49.968;9.062;2023-02-08T16:47:46;4.78;;;3.40;;
22113;SDS011;11223;49.968;9.062;2023-02-08T16:50:21;6.68;;;4.63;;
22113;SDS011;11223;49.968;9.062;2023-02-08T16:52:55;7.45;;;5.18;;
22113;SDS011;11223;49.968;9.062;2023-02-08T16:55:27;6.15;;;4.45;;
22113;SDS011;11223;49.968;9.062;2023-02-08T16:57:56;8.20;;;5.30;;
22113;SDS011;11223;49.968;9.062;2023-02-08T17:02:58;6.90;;;4.63;;
22113;SDS011;11223;49.968;9.062;2023-02-08T17:05:25;7.93;;;4.95;;
22113;SDS011;11223;49.968;9.062;2023-02-08T17:07:56;6.82;;;4.20;;
22113;SDS011;11223;49.968;9.062;2023-02-08T17:10:25;7.40;;;4.85;;
22113;SDS011;11223;49.968;9.062;2023-02-08T17:12:52;6.85;;;4.32;;
22113;SDS011;11223;49.968;9.062;2023-02-08T17:15:18;7.35;;;3.63;;
22113;SDS011;11223;49.968;9.062;2023-02-08T17:17:45;5.32;;;4.20;;
22113;SDS011;11223;49.968;9.062;2023-02-08T17:20:15;6.75;;;4.43;;
22113;SDS011;11223;49.968;9.062;2023-02-08T17:23:08;6.72;;;4.25;;
22113;SDS011;11223;49.968;9.062;2023-02-08T17:25:34;6.20;;;4.43;;
22113;SDS011;11223;49.968;9.062;2023-02-08T17:28:03;5.30;;;4.40;;
22113;SDS011;11223;49.968;9.062;2023-02-08T17:44:12;6.95;;;5.13;;
22113;SDS011;11223;49.968;9.062;2023-02-08T17:46:39;6.20;;;4.55;;
22113;SDS011;11223;49.968;9.062;2023-02-08T17:49:05;10.20;;;5.28;;
22113;SDS011;11223;49.968;9.062;2023-02-08T17:51:31;8.00;;;4.03;;
22113;SDS011;11223;49.968;9.062;2023-02-08T17:53:57;9.93;;;4.40;;
22113;SDS011;11223;49.968;9.062;2023-02-08T17:56:24;5.72;;;4.85;;
22113;SDS011;11223;49.968;9.062;2023-02-08T18:02:13;7.03;;;5.38;;
22113;SDS011;11223;49.968;9.062;2023-02-08T18:04:39;7.07;;;5.80;;
22113;SDS011;11223;49.968;9.062;2023-02-08T18:07:04;8.67;;;5.60;;
22113;SDS011;11223;49.968;9.062;2023-02-08T18:09:30;12.80;;;6.50;;
22113;SDS011;11223;49.968;9.062;2023-02-08T18:11:56;9.63;;;6.60;;
22113;SDS011;11223;49.968;9.062;2023-02-08T18:14:22;13.20;;;6.60;;
22113;SDS011;11223;49.968;9.062;2023-02-08T18:16:47;11.23;;;5.83;;
22113;SDS011;11223;49.968;9.062;2023-02-08T18:19:13;9.47;;;5.43;;
22113;SDS011;11223;49.968;9.062;2023-02-08T18:21:39;9.80;;;5.67;;
22113;SDS011;11223;49.968;9.062;2023-02-08T18:24:23;10.30;;;6.03;;
22113;SDS011;11223;49.968;9.062;2023-02-08T18:26:48;10.50;;;7.05;;
22113;SDS011;11223;49.968;9.062;2023-02-08T18:29:14;9.10;;;5.50;;
22113;SDS011;11223;49.968;9.062;2023-02-08T18:41:15;8.57;;;5.72;;
22113;SDS011;11223;49.968;9.062;2023-02-08T18:43:45;7.45;;;5.80;;
22113;SDS011;11223;49.968;9.062;2023-02-08T18:46:12;6.97;;;5.18;;
22113;SDS011;11223;49.968;9.062;2023-02-08T18:48:40;7.38;;;5.30;;
22113;SDS011;11223;49.968;9.062;2023-02-08T18:51:15;9.00;;;5.93;;
22113;SDS011;11223;49.968;9.062;2023-02-08T18:54:02;8.05;;;5.43;;
22113;SDS011;11223;49.968;9.062;2023-02-08T18:56:46;9.50;;;6.40;;
22113;SDS011;11223;49.968;9.062;2023-02-08T18:59:24;9.48;;;6.45;;
22113;SDS011;11223;49.968;9.062;2023-02-08T19:04:42;10.98;;;5.97;;
22113;SDS011;11223;49.968;9.062;2023-02-08T19:07:08;7.97;;;6.37;;
22113;SDS011;11223;49.968;9.062;2023-02-08T19:09:34;10.47;;;6.37;;
22113;SDS011;11223;49.968;9.062;2023-02-08T19:12:01;11.30;;;5.78;;
22113;SDS011;11223;49.968;9.062;2023-02-08T19:14:27;11.57;;;7.20;;
22113;SDS011;11223;49.968;9.062;2023-02-08T19:16:53;9.50;;;7.20;;
22113;SDS011;11223;49.968;9.062;2023-02-08T19:19:18;18.63;;;6.60;;
22113;SDS011;11223;49.968;9.062;2023-02-08T19:21:44;10.53;;;6.13;;
22113;SDS011;11223;49.968;9.062;2023-02-08T19:24:10;9.43;;;6.83;;
22113;SDS011;11223;49.968;9.062;2023-02-08T19:26:37;10.25;;;6.20;;
22113;SDS011;11223;49.968;9.062;2023-02-08T19:29:19;13.20;;;8.25;;
22113;SDS011;11223;49.968;9.062;2023-02-08T19:34:46;6.78;;;4.85;;
22113;SDS011;11223;49.968;9.062;2023-02-08T19:40:28;12.93;;;6.82;;
22113;SDS011;11223;49.968;9.062;2023-02-08T19:43:00;9.37;;;7.30;;
22113;SDS011;11223;49.968;9.062;2023-02-08T19:45:25;9.35;;;6.50;;
22113;SDS011;11223;49.968;9.062;2023-02-08T19:47:51;11.50;;;6.90;;
22113;SDS011;11223;49.968;9.062;2023-02-08T19:50:20;11.48;;;7.05;;
22113;SDS011;11223;49.968;9.062;2023-02-08T19:52:45;12.53;;;7.57;;
22113;SDS011;11223;49.968;9.062;2023-02-08T19:55:11;14.90;;;9.03;;
22113;SDS011;11223;49.968;9.062;2023-02-08T19:57:37;15.00;;;9.00;;
22113;SDS011;11223;49.968;9.062;2023-02-08T20:00:04;12.75;;;9.40;;
22113;SDS011;11223;49.968;9.062;2023-02-08T20:03:07;14.13;;;9.52;;
22113;SDS011;11223;49.968;9.062;2023-02-08T20:05:36;12.30;;;9.13;;
22113;SDS011;11223;49.968;9.062;2023-02-08T20:08:02;14.93;;;9.20;;
22113;SDS011;11223;49.968;9.062;2023-02-08T20:10:27;14.87;;;9.40;;
22113;SDS011;11223;49.968;9.062;2023-02-08T20:12:53;12.67;;;7.80;;
22113;SDS011;11223;49.968;9.062;2023-02-08T20:15:19;13.90;;;8.83;;
22113;SDS011;11223;49.968;9.062;2023-02-08T20:17:44;13.33;;;9.10;;
22113;SDS011;11223;49.968;9.062;2023-02-08T20:20:10;18.77;;;9.33;;
22113;SDS011;11223;49.968;9.062;2023-02-08T20:22:36;13.30;;;9.30;;
22113;SDS011;11223;49.968;9.062;2023-02-08T20:25:01;13.83;;;9.13;;